2022年7月3日

时间 代码 天气 温度 能见度 天花板 METAR/SPECI
7:30 上午
V
59 °F 6¼ mi+ - 130° 130° 3 kt METAR LFCR 030530Z AUTO 13003KT CAVOK 15/13 Q1021 NOSIG
7:00 上午
V
57 °F 6¼ mi+ - 150° 150° 3 kt METAR LFCR 030500Z AUTO 15003KT CAVOK 14/12 Q1021 NOSIG
6:30 上午
V
57 °F 6¼ mi+ - 090° 090° 3 kt METAR LFCR 030430Z AUTO 09003KT CAVOK 14/12 Q1020 NOSIG
6:00 上午
V
57 °F 6¼ mi+ - Var 000° 0 kt METAR LFCR 030400Z AUTO 00000KT CAVOK 14/12 Q1020 NOSIG
5:30 上午
V
57 °F 6¼ mi+ - Var 000° 0 kt METAR LFCR 030330Z AUTO 00000KT CAVOK 14/12 Q1020 NOSIG
5:00 上午
V
59 °F 6¼ mi+ - 120° 120° 3 kt METAR LFCR 030300Z AUTO 12003KT CAVOK 15/12 Q1020 NOSIG
4:30 上午
V
57 °F 6¼ mi+ - Var Var 2 kt METAR LFCR 030230Z AUTO VRB02KT CAVOK 14/12 Q1020 NOSIG
4:00 上午
V
59 °F 6¼ mi+ - Var 000° 0 kt METAR LFCR 030200Z AUTO 00000KT CAVOK 15/12 Q1021 NOSIG
3:30 上午
V
59 °F 6¼ mi+ - 130° 130° 4 kt METAR LFCR 030130Z AUTO 13004KT CAVOK 15/13 Q1021 NOSIG
3:00 上午
V
61 °F 6¼ mi+ - 170° 170° 1 kt METAR LFCR 030100Z AUTO 17001KT CAVOK 16/12 Q1021 NOSIG
2:30 上午
V
61 °F 6¼ mi+ - Var 000° 0 kt METAR LFCR 030030Z AUTO 00000KT CAVOK 16/12 Q1021 NOSIG
2:00 上午
V
61 °F 6¼ mi+ - Var 000° 0 kt METAR LFCR 030000Z AUTO 00000KT CAVOK 16/12 Q1022 NOSIG
1:30 上午
V
63 °F 6¼ mi+ - Var Var 1 kt METAR LFCR 022330Z AUTO VRB01KT CAVOK 17/12 Q1021 NOSIG
1:00 上午
V
63 °F 6¼ mi+ - 160° 160° 2 kt METAR LFCR 022300Z AUTO 16002KT CAVOK 17/12 Q1022 NOSIG
12:30 上午
V
64 °F 6¼ mi+ - Var 000° 0 kt METAR LFCR 022230Z AUTO 00000KT CAVOK 18/11 Q1022 NOSIG
12:00 上午
V
63 °F 6¼ mi+ - Var Var 1 kt METAR LFCR 022200Z AUTO VRB01KT CAVOK 17/12 Q1022 NOSIG

2022年7月2日

时间 代码 天气 温度 能见度 天花板 METAR/SPECI
11:30 下午
V
64 °F 6¼ mi+ - 210° 210° 1 kt METAR LFCR 022130Z AUTO 21001KT CAVOK 18/11 Q1021 NOSIG
11:00 下午
V
68 °F 6¼ mi+ - Var 000° 0 kt METAR LFCR 022100Z AUTO 00000KT CAVOK 20/11 Q1021 NOSIG
10:30 下午
V
68 °F 6¼ mi+ - 250° 250° 3 kt METAR LFCR 022030Z AUTO 25003KT CAVOK 20/10 Q1021 NOSIG
10:00 下午
V
72 °F 6¼ mi+ - 300° 300° 3 kt METAR LFCR 022000Z AUTO 30003KT CAVOK 22/10 Q1021 NOSIG
9:30 下午
V
73 °F 6¼ mi+ - 320° 320° 4 kt METAR LFCR 021930Z AUTO 32004KT CAVOK 23/10 Q1020 NOSIG
9:00 下午
V
75 °F 6¼ mi+ - 320° 320° 5 kt METAR LFCR 021900Z AUTO 32005KT CAVOK 24/11 Q1020 NOSIG
8:30 下午
V
79 °F 6¼ mi+ - 330° 330° 6 kt METAR LFCR 021830Z AUTO 33006KT CAVOK 26/11 Q1020 NOSIG
8:00 下午
V
81 °F 6¼ mi+ - 340° 340° 5 kt METAR LFCR 021800Z AUTO 34005KT 9999 FEW016 27/09 Q1020 NOSIG
7:30 下午
V
82 °F 6¼ mi+ - 330° 330° 5 kt METAR LFCR 021730Z AUTO 33005KT CAVOK 28/10 Q1020 NOSIG
7:00 下午
V
84 °F 6¼ mi+ - 340° 340° 4 kt METAR LFCR 021700Z AUTO 34004KT 310V010 CAVOK 29/09 Q1020 NOSIG
6:30 下午
V
84 °F 6¼ mi+ - 360° 360° 3 kt METAR LFCR 021630Z AUTO 36003KT 320V060 CAVOK 29/09 Q1020 NOSIG
6:00 下午
V
84 °F 6¼ mi+ - 350° 350° 4 kt METAR LFCR 021600Z AUTO 35004KT 310V040 CAVOK 29/09 Q1020 NOSIG
5:30 下午
V
82 °F 6¼ mi+ - 040° 040° 3 kt METAR LFCR 021530Z AUTO 04003KT 320V090 CAVOK 28/09 Q1020 NOSIG
5:00 下午
V
84 °F 6¼ mi+ - Var Var 2 kt METAR LFCR 021500Z AUTO VRB02KT CAVOK 29/07 Q1020 NOSIG
4:30 下午
V
82 °F 6¼ mi+ - 030° 030° 4 kt METAR LFCR 021430Z AUTO 03004KT 340V060 CAVOK 28/10 Q1020 NOSIG
4:00 下午
V
82 °F 6¼ mi+ - Var Var 2 kt METAR LFCR 021400Z AUTO VRB02KT CAVOK 28/11 Q1020 NOSIG
3:30 下午
V
81 °F 6¼ mi+ - Var Var 4 kt METAR LFCR 021330Z AUTO VRB04KT CAVOK 27/10 Q1020 NOSIG
3:00 下午
V
81 °F 6¼ mi+ - 360° 360° 4 kt METAR LFCR 021300Z AUTO 36004KT 290V080 CAVOK 27/10 Q1020 NOSIG
2:30 下午
V
81 °F 6¼ mi+ - Var Var 3 kt METAR LFCR 021230Z AUTO VRB03KT CAVOK 27/11 Q1021 NOSIG
2:00 下午
V
79 °F 6¼ mi+ - Var Var 3 kt METAR LFCR 021200Z AUTO VRB03KT CAVOK 26/09 Q1021 NOSIG
1:30 下午
V
77 °F 6¼ mi+ - Var Var 2 kt METAR LFCR 021130Z AUTO VRB02KT CAVOK 25/11 Q1021 NOSIG
1:00 下午
V
75 °F 6¼ mi+ - Var Var 2 kt METAR LFCR 021100Z AUTO VRB02KT CAVOK 24/09 Q1021 NOSIG
12:30 下午
V
75 °F 6¼ mi+ - Var Var 3 kt METAR LFCR 021030Z AUTO VRB03KT CAVOK 24/09 Q1021 NOSIG
12:00 下午
V
73 °F 6¼ mi+ - Var Var 3 kt METAR LFCR 021000Z AUTO VRB03KT CAVOK 23/10 Q1021 NOSIG
11:30 上午
V
72 °F 6¼ mi+ - Var Var 3 kt METAR LFCR 020930Z AUTO VRB03KT CAVOK 22/10 Q1021 NOSIG
11:00 上午
V
70 °F 6¼ mi+ - Var Var 2 kt METAR LFCR 020900Z AUTO VRB02KT CAVOK 21/11 Q1021 NOSIG
10:30 上午
V
68 °F 6¼ mi+ - Var Var 3 kt METAR LFCR 020830Z AUTO VRB03KT CAVOK 20/11 Q1021 NOSIG
10:00 上午
V
66 °F 6¼ mi+ - Var Var 3 kt METAR LFCR 020800Z AUTO VRB03KT CAVOK 19/11 Q1021 NOSIG
9:30 上午
V
64 °F 6¼ mi+ - Var Var 3 kt METAR LFCR 020730Z AUTO VRB03KT CAVOK 18/11 Q1021 NOSIG
9:00 上午
V
63 °F 6¼ mi+ - 110° 110° 3 kt METAR LFCR 020700Z AUTO 11003KT 070V140 CAVOK 17/11 Q1021 NOSIG
8:30 上午
V
59 °F 6¼ mi+ - 120° 120° 4 kt METAR LFCR 020630Z AUTO 12004KT CAVOK 15/10 Q1021 NOSIG
8:00 上午
V
55 °F 6¼ mi+ - 130° 130° 4 kt METAR LFCR 020600Z AUTO 13004KT CAVOK 13/10 Q1021 NOSIG
7:30 上午
V
52 °F 6¼ mi+ - 160° 160° 3 kt METAR LFCR 020530Z AUTO 16003KT 120V180 CAVOK 11/09 Q1021 NOSIG
7:00 上午
V
50 °F 6¼ mi+ - 080° 080° 3 kt METAR LFCR 020500Z AUTO 08003KT CAVOK 10/09 Q1021 NOSIG
6:30 上午
V
46 °F 6¼ mi+ - 140° 140° 5 kt METAR LFCR 020430Z AUTO 14005KT CAVOK 08/08 Q1021 NOSIG
6:00 上午
V
48 °F 6¼ mi+ - 160° 160° 3 kt METAR LFCR 020400Z AUTO 16003KT CAVOK 09/08 Q1021 NOSIG
5:30 上午
V
50 °F 6¼ mi+ - 060° 060° 6 kt METAR LFCR 020330Z AUTO 06006KT CAVOK 10/09 Q1021 NOSIG
5:00 上午
V
50 °F 6¼ mi+ - 060° 060° 3 kt METAR LFCR 020300Z AUTO 06003KT CAVOK 10/09 Q1021 NOSIG
4:30 上午
V
50 °F 6¼ mi+ - 140° 140° 3 kt METAR LFCR 020230Z AUTO 14003KT CAVOK 10/09 Q1021 NOSIG
4:00 上午
V
50 °F 6¼ mi+ - 170° 170° 2 kt METAR LFCR 020200Z AUTO 17002KT CAVOK 10/09 Q1021 NOSIG
3:30 上午
V
50 °F 6¼ mi+ - 160° 160° 2 kt METAR LFCR 020130Z AUTO 16002KT CAVOK 10/09 Q1021 NOSIG
3:00 上午
V
50 °F 6¼ mi+ - 150° 150° 4 kt METAR LFCR 020100Z AUTO 15004KT CAVOK 10/09 Q1021 NOSIG
2:30 上午
V
50 °F 6¼ mi+ - 150° 150° 2 kt METAR LFCR 020030Z AUTO 15002KT CAVOK 10/08 Q1021 NOSIG
2:00 上午
V
50 °F 6¼ mi+ - 140° 140° 3 kt METAR LFCR 020000Z AUTO 14003KT CAVOK 10/08 Q1021 NOSIG
1:30 上午
V
52 °F 6¼ mi+ - Var 000° 0 kt METAR LFCR 012330Z AUTO 00000KT CAVOK 11/09 Q1021 NOSIG
1:00 上午
V
54 °F 6¼ mi+ - 200° 200° 3 kt METAR LFCR 012300Z AUTO 20003KT CAVOK 12/09 Q1022 NOSIG
12:30 上午
V
54 °F 6¼ mi+ - 230° 230° 3 kt METAR LFCR 012230Z AUTO 23003KT CAVOK 12/09 Q1022 NOSIG
12:00 上午
V
55 °F 6¼ mi+ - Var Var 3 kt METAR LFCR 012200Z AUTO VRB03KT CAVOK 13/10 Q1022 NOSIG

2022年7月1日

时间 代码 天气 温度 能见度 天花板 METAR/SPECI
11:30 下午
V
55 °F 6¼ mi+ - 230° 230° 3 kt METAR LFCR 012130Z AUTO 23003KT CAVOK 13/10 Q1022 NOSIG
11:00 下午
V
57 °F 6¼ mi+ - 270° 270° 3 kt METAR LFCR 012100Z AUTO 27003KT CAVOK 14/10 Q1021 NOSIG
10:30 下午
V
57 °F 6¼ mi+ - 290° 290° 5 kt METAR LFCR 012030Z AUTO 29005KT CAVOK 14/10 Q1021 NOSIG
10:00 下午
V
59 °F 6¼ mi+ - 300° 300° 5 kt METAR LFCR 012000Z AUTO 30005KT CAVOK 15/10 Q1021 NOSIG
9:30 下午
V
61 °F 6¼ mi+ - 300° 300° 5 kt METAR LFCR 011930Z AUTO 30005KT CAVOK 16/10 Q1021 NOSIG
9:00 下午
V
64 °F 6¼ mi+ - 300° 300° 8 kt METAR LFCR 011900Z AUTO 30008KT CAVOK 18/11 Q1021 NOSIG
8:30 下午
V
66 °F 6¼ mi+ - 310° 310° 9 kt METAR LFCR 011830Z AUTO 31009KT CAVOK 19/10 Q1021 NOSIG
8:00 下午
V
68 °F 6¼ mi+ - 320° 320° 8 kt METAR LFCR 011800Z AUTO 32008KT CAVOK 20/10 Q1021 NOSIG
7:30 下午
V
68 °F 6¼ mi+ - 320° 320° 7 kt METAR LFCR 011730Z AUTO 32007KT 300V360 CAVOK 20/10 Q1020 NOSIG
7:00 下午
V
68 °F 6¼ mi+ - 330° 330° 7 kt METAR LFCR 011700Z AUTO 33007KT 290V010 CAVOK 20/09 Q1021 NOSIG
6:30 下午
V
70 °F 6¼ mi+ - 330° 330° 7 kt METAR LFCR 011630Z AUTO 33007KT 280V360 CAVOK 21/10 Q1021 NOSIG
6:00 下午
V
68 °F 6¼ mi+ - 310° 310° 6 kt METAR LFCR 011600Z AUTO 31006KT 270V010 CAVOK 20/09 Q1021 NOSIG
5:30 下午
V
68 °F 6¼ mi+ - 300° 300° 8 kt METAR LFCR 011530Z AUTO 30008KT 270V350 CAVOK 20/09 Q1021 NOSIG
5:00 下午
V
68 °F 6¼ mi+ - 280° 280° 6 kt METAR LFCR 011500Z AUTO 28006KT 220V340 CAVOK 20/11 Q1021 NOSIG
4:30 下午
V
68 °F 6¼ mi+ - 300° 300° 7 kt METAR LFCR 011430Z AUTO 30007KT 260V350 CAVOK 20/10 Q1021 NOSIG
4:00 下午
V
68 °F 6¼ mi+ - 320° 320° 8 kt METAR LFCR 011400Z AUTO 32008KT 260V030 9999 FEW043 20/11 Q1021 NOSIG
3:30 下午
V
66 °F 6¼ mi+ - 320° 320° 6 kt METAR LFCR 011330Z AUTO 32006KT 260V010 9999 FEW044 19/10 Q1021 NOSIG
3:00 下午
V
66 °F 6¼ mi+ - 320° 320° 7 kt METAR LFCR 011300Z AUTO 32007KT 290V020 CAVOK 19/09 Q1021 NOSIG
2:30 下午
V
66 °F 6¼ mi+ - 310° 310° 7 kt METAR LFCR 011230Z AUTO 31007KT 250V360 9999 FEW041 19/10 Q1021 NOSIG
2:00 下午
V
64 °F 6¼ mi+ - 310° 310° 7 kt METAR LFCR 011200Z AUTO 31007KT 260V030 9999 SCT039 18/09 Q1021 NOSIG
1:30 下午
V
64 °F 6¼ mi+ - 310° 310° 6 kt METAR LFCR 011130Z AUTO 31006KT 240V030 9999 FEW038 18/10 Q1022 NOSIG
1:00 下午
V
63 °F 6¼ mi+ - 330° 330° 7 kt METAR LFCR 011100Z AUTO 33007KT 300V010 9999 SCT035 17/09 Q1022 NOSIG
12:30 下午
V
61 °F 6¼ mi+ - Var Var 6 kt METAR LFCR 011030Z AUTO VRB06KT 9999 SCT031 16/09 Q1022 NOSIG
12:00 下午
V
61 °F 6¼ mi+ - Var Var 5 kt METAR LFCR 011000Z AUTO VRB05KT 9999 FEW001 SCT028 16/10 Q1021 NOSIG
11:30 上午
V
61 °F 6¼ mi+ - 310° 310° 7 kt METAR LFCR 010930Z AUTO 31007KT 260V360 9999 SCT028 16/10 Q1021 NOSIG
11:00 上午
V
59 °F 6¼ mi+ - 320° 320° 7 kt METAR LFCR 010900Z AUTO 32007KT 270V360 9999 FEW019 15/11 Q1021 NOSIG
10:30 上午
V
57 °F 6¼ mi+ - 320° 320° 8 kt METAR LFCR 010830Z AUTO 32008KT 280V360 9999 FEW018 14/11 Q1021 NOSIG
10:00 上午
V
57 °F 6¼ mi+ - 320° 320° 6 kt METAR LFCR 010800Z AUTO 32006KT 290V350 9999 FEW011 14/11 Q1021 NOSIG
9:30 上午
I
55 °F 6¼ mi+ 900 ft 340° 340° 6 kt METAR LFCR 010730Z AUTO 34006KT 300V020 9999 BKN009 13/11 Q1021 BECMG FEW012
9:00 上午
V
55 °F 6¼ mi+ - 320° 320° 6 kt METAR LFCR 010700Z AUTO 32006KT 280V340 9999 FEW007 13/11 Q1021 NOSIG
8:30 上午
V
52 °F 6¼ mi+ - 320° 320° 8 kt METAR LFCR 010630Z AUTO 32008KT 9999 SCT005 11/10 Q1021 NOSIG
8:00 上午
L
52 °F 6¼ mi+ 400 ft 310° 310° 8 kt METAR LFCR 010600Z AUTO 31008KT 9999 BKN004 11/10 Q1021 BECMG FEW012
7:30 上午
L
50 °F 6¼ mi+ 400 ft 300° 300° 6 kt METAR LFCR 010530Z AUTO 30006KT 9999 BKN004 10/10 Q1021 BECMG FEW012
7:00 上午
V
48 °F 6¼ mi+ - 270° 270° 4 kt METAR LFCR 010500Z AUTO 27004KT 9999 FEW002 09/09 Q1021 TEMPO 0400 FG VV///
6:30 上午
L
48 °F 1 mi - 280° 280° 3 kt METAR LFCR 010430Z AUTO 28003KT 1600 BR VV/// 09/08 Q1020 BECMG 9999 NSW FEW012
6:00 上午
L
50 °F 6¼ mi+ 200 ft 320° 320° 3 kt METAR LFCR 010400Z AUTO 32003KT 290V350 9999 BKN002 OVC006 10/10 Q1020 TEMPO 0400 FG VV///
5:30 上午
L
50 °F 6¼ mi+ 200 ft 330° 330° 6 kt METAR LFCR 010330Z AUTO 33006KT 300V360 9999 OVC002 10/10 Q1020 TEMPO 0400 FG VV///
5:00 上午
L
50 °F 6¼ mi+ 300 ft 320° 320° 7 kt METAR LFCR 010300Z AUTO 32007KT 9999 OVC003 10/10 Q1021 TEMPO 0400 FG VV///
较旧的数据

下载我们的应用程序

在您的手机和平板电脑上轻松访问所有航空天气。
有许多网站上没有的功能,如离线支持和个人机场列表。

Studio Eveline

Benalmádena
España

我们和第三方通过cookies跟踪您在我们网站上的上网行为。如果您继续,我们认为您同意我们的cookie政策。 了解更多